createdAt,value
2023-01-07T00:00:05.190Z,19.20
2023-01-07T00:02:35.827Z,19.10
2023-01-07T00:05:10.751Z,19.30
2023-01-07T00:07:47.074Z,19.80
2023-01-07T00:10:24.109Z,20.30
2023-01-07T00:12:54.429Z,20.50
2023-01-07T00:15:24.729Z,20.50
2023-01-07T00:17:55.008Z,20.60
2023-01-07T00:20:40.439Z,20.70
2023-01-07T00:23:21.235Z,20.80
2023-01-07T00:26:33.658Z,20.90
2023-01-07T00:29:08.554Z,21.00
2023-01-07T00:31:42.264Z,21.10
2023-01-07T00:34:14.142Z,21.10
2023-01-07T00:36:52.675Z,20.90
2023-01-07T00:39:24.369Z,20.70
2023-01-07T00:42:15.952Z,20.80
2023-01-07T00:44:46.775Z,20.90
2023-01-07T00:47:17.400Z,21.20
2023-01-07T00:49:49.236Z,21.80
2023-01-07T00:52:35.394Z,22.10
2023-01-07T00:55:06.941Z,22.10
2023-01-07T00:57:41.350Z,21.70
2023-01-07T01:00:15.010Z,21.40
2023-01-07T01:02:45.907Z,21.40
2023-01-07T01:05:17.757Z,21.50
2023-01-07T01:07:49.192Z,21.80
2023-01-07T01:10:22.423Z,22.00
2023-01-07T01:12:54.279Z,22.20
2023-01-07T01:15:26.592Z,22.40
2023-01-07T01:17:58.189Z,22.70
2023-01-07T01:20:30.624Z,23.10
2023-01-07T01:23:01.286Z,23.30
2023-01-07T01:25:32.140Z,23.20
2023-01-07T01:28:02.776Z,23.10
2023-01-07T01:30:40.372Z,22.90
2023-01-07T01:33:11.358Z,22.60
2023-01-07T01:35:47.117Z,22.30
2023-01-07T01:38:22.829Z,22.00
2023-01-07T01:41:00.480Z,22.00
2023-01-07T01:43:39.836Z,22.10
2023-01-07T01:46:24.624Z,22.20
2023-01-07T01:49:09.099Z,22.00
2023-01-07T01:51:43.997Z,21.90
2023-01-07T01:54:18.454Z,21.80
2023-01-07T01:57:09.693Z,21.90
2023-01-07T01:59:45.191Z,22.20
2023-01-07T02:02:22.219Z,22.30
2023-01-07T02:05:03.586Z,22.30
2023-01-07T02:07:34.353Z,22.60
2023-01-07T02:10:15.769Z,22.90
2023-01-07T02:13:31.099Z,22.80
2023-01-07T02:16:28.062Z,23.00
2023-01-07T02:19:01.928Z,23.20
2023-01-07T02:21:47.405Z,23.40
2023-01-07T02:24:50.621Z,23.50
2023-01-07T02:27:31.522Z,23.70
2023-01-07T02:30:31.111Z,23.80
2023-01-07T02:33:36.862Z,23.80
2023-01-07T02:36:21.346Z,24.10
2023-01-07T02:39:25.329Z,24.30
2023-01-07T02:42:22.552Z,24.00
2023-01-07T02:45:36.056Z,23.90
2023-01-07T02:48:14.836Z,24.00
2023-01-07T02:50:45.496Z,24.20
2023-01-07T02:53:22.220Z,24.20
2023-01-07T02:56:15.901Z,24.20
2023-01-07T02:59:17.113Z,24.20
2023-01-07T03:01:58.464Z,24.30
2023-01-07T03:05:08.508Z,24.20
2023-01-07T03:07:58.466Z,23.70
2023-01-07T03:11:10.068Z,23.20
2023-01-07T03:14:06.224Z,23.10
2023-01-07T03:16:47.848Z,23.40
2023-01-07T03:19:46.125Z,23.50
2023-01-07T03:22:20.286Z,23.80
2023-01-07T03:24:56.658Z,24.10
2023-01-07T03:27:29.002Z,24.30
2023-01-07T03:30:05.223Z,24.50
2023-01-07T03:32:42.082Z,24.60
2023-01-07T03:35:13.356Z,24.70
2023-01-07T03:37:45.454Z,24.40
2023-01-07T03:40:16.781Z,24.00
2023-01-07T03:42:51.186Z,23.80
2023-01-07T03:45:25.771Z,23.70
2023-01-07T03:48:02.366Z,23.40
2023-01-07T03:50:33.117Z,22.90
2023-01-07T03:53:03.797Z,22.70
2023-01-07T03:55:35.762Z,22.80
2023-01-07T03:58:07.036Z,22.90
2023-01-07T04:00:37.767Z,23.10
2023-01-07T04:03:08.473Z,23.40
2023-01-07T04:05:39.479Z,23.60
2023-01-07T04:08:10.742Z,23.60
2023-01-07T04:10:41.524Z,23.60
2023-01-07T04:13:12.404Z,23.70
2023-01-07T04:15:43.338Z,23.70
2023-01-07T04:18:14.113Z,23.70
2023-01-07T04:20:47.844Z,23.60
2023-01-07T04:23:19.304Z,23.60
2023-01-07T04:25:51.332Z,23.60
2023-01-07T04:28:21.995Z,23.60
2023-01-07T04:30:52.492Z,23.60
2023-01-07T04:33:24.003Z,23.60
2023-01-07T04:35:55.705Z,23.60
2023-01-07T04:38:32.283Z,23.60
2023-01-07T04:41:03.265Z,23.50
2023-01-07T04:43:36.177Z,23.40
2023-01-07T04:46:07.928Z,23.40
2023-01-07T04:48:38.630Z,23.40
2023-01-07T04:51:11.335Z,23.40
2023-01-07T04:53:42.044Z,23.20
2023-01-07T04:56:13.168Z,23.00
2023-01-07T04:58:44.005Z,22.80
2023-01-07T05:01:15.119Z,22.70
2023-01-07T05:03:46.056Z,22.70
2023-01-07T05:06:16.749Z,22.70
2023-01-07T05:08:47.527Z,22.70
2023-01-07T05:11:23.585Z,22.80
2023-01-07T05:14:03.408Z,22.80
2023-01-07T05:16:34.294Z,22.70
2023-01-07T05:19:04.979Z,22.70
2023-01-07T05:21:36.017Z,22.80
2023-01-07T05:24:06.855Z,22.80
2023-01-07T05:26:38.158Z,22.80
2023-01-07T05:29:09.315Z,22.70
2023-01-07T05:31:40.599Z,22.70
2023-01-07T05:34:11.385Z,22.60
2023-01-07T05:36:42.477Z,22.60
2023-01-07T05:39:13.516Z,22.60
2023-01-07T05:41:45.722Z,22.50
2023-01-07T05:44:16.506Z,22.40
2023-01-07T05:46:47.559Z,22.30
2023-01-07T05:49:18.218Z,22.30
2023-01-07T05:51:50.424Z,22.20
2023-01-07T05:54:21.107Z,22.20
2023-01-07T05:56:51.878Z,22.10
2023-01-07T05:59:22.806Z,22.00
2023-01-07T06:01:55.129Z,21.90
2023-01-07T06:04:27.347Z,21.90
2023-01-07T06:06:58.058Z,21.90
2023-01-07T06:09:33.272Z,21.90
2023-01-07T06:12:04.797Z,21.90
2023-01-07T06:14:36.417Z,21.80
2023-01-07T06:17:08.813Z,21.80
2023-01-07T06:22:24.345Z,21.80
2023-01-07T06:24:58.116Z,21.70
2023-01-07T06:27:31.788Z,21.70
2023-01-07T06:30:04.624Z,21.60
2023-01-07T06:33:03.585Z,21.50
2023-01-07T06:35:35.334Z,21.40
2023-01-07T06:38:06.328Z,21.40
2023-01-07T06:40:37.393Z,21.30
2023-01-07T06:43:08.153Z,21.30
2023-01-07T06:45:40.727Z,21.30
2023-01-07T06:48:13.309Z,21.20
2023-01-07T06:50:44.145Z,21.20
2023-01-07T06:53:18.444Z,21.20
2023-01-07T06:55:55.322Z,21.10
2023-01-07T06:58:34.563Z,21.10
2023-01-07T07:01:12.735Z,21.10
2023-01-07T07:03:43.573Z,21.00
2023-01-07T07:06:18.727Z,20.90
2023-01-07T07:08:50.595Z,20.80
2023-01-07T07:11:22.064Z,20.70
2023-01-07T07:13:52.728Z,20.70
2023-01-07T07:16:26.790Z,20.60
2023-01-07T07:19:00.930Z,20.60
2023-01-07T07:21:31.625Z,20.60
2023-01-07T07:24:03.606Z,20.60
2023-01-07T07:26:34.310Z,20.60
2023-01-07T07:29:04.962Z,20.50
2023-01-07T07:31:35.657Z,20.50
2023-01-07T07:34:08.117Z,20.50
2023-01-07T07:36:39.732Z,20.50
2023-01-07T07:39:11.999Z,20.50
2023-01-07T07:41:43.138Z,20.40
2023-01-07T07:44:15.138Z,20.30
2023-01-07T07:46:47.076Z,20.30
2023-01-07T07:49:22.330Z,20.20
2023-01-07T07:51:57.589Z,20.10
2023-01-07T07:54:31.069Z,20.00
2023-01-07T07:57:03.165Z,20.00
2023-01-07T07:59:34.633Z,19.90
2023-01-07T08:02:05.414Z,19.80
2023-01-07T08:04:38.436Z,19.80
2023-01-07T08:07:09.458Z,19.80
2023-01-07T08:09:40.934Z,19.70
2023-01-07T08:12:17.898Z,19.60
2023-01-07T08:14:54.239Z,19.40
2023-01-07T08:17:26.258Z,19.30
2023-01-07T08:19:59.529Z,19.20
2023-01-07T08:22:30.246Z,19.00
2023-01-07T08:25:02.174Z,18.90
2023-01-07T08:27:33.237Z,18.90
2023-01-07T08:30:06.117Z,18.80
2023-01-07T08:32:37.790Z,18.60
2023-01-07T08:35:10.216Z,18.40
2023-01-07T08:37:42.157Z,18.30
2023-01-07T08:40:15.987Z,18.20
2023-01-07T08:42:46.869Z,18.10
2023-01-07T08:45:17.768Z,18.10
2023-01-07T08:47:50.556Z,18.00
2023-01-07T08:50:24.503Z,18.00
2023-01-07T08:52:56.375Z,17.90
2023-01-07T08:55:32.643Z,17.90
2023-01-07T08:58:04.472Z,17.80
2023-01-07T09:00:38.474Z,17.70
2023-01-07T09:03:09.891Z,17.60
2023-01-07T09:05:42.171Z,17.60
2023-01-07T09:08:13.691Z,17.50
2023-01-07T09:10:44.613Z,17.40
2023-01-07T09:13:16.191Z,17.40
2023-01-07T09:15:47.674Z,17.40
2023-01-07T09:18:19.334Z,17.30
2023-01-07T09:20:50.427Z,17.30
2023-01-07T09:23:21.615Z,17.30
2023-01-07T09:25:52.415Z,17.20
2023-01-07T09:28:24.244Z,17.20
2023-01-07T09:30:56.886Z,17.10
2023-01-07T09:33:28.798Z,17.10
2023-01-07T09:36:01.335Z,17.10
2023-01-07T09:38:33.910Z,17.10
2023-01-07T09:41:04.814Z,17.00
2023-01-07T09:44:01.118Z,16.90
2023-01-07T09:46:37.322Z,16.90
2023-01-07T09:49:20.547Z,16.80
2023-01-07T09:52:03.657Z,16.80
2023-01-07T09:54:39.061Z,16.80
2023-01-07T09:57:11.804Z,16.70
2023-01-07T09:59:42.862Z,16.70
2023-01-07T10:02:49.055Z,16.60
2023-01-07T10:05:38.871Z,16.60
2023-01-07T10:08:36.139Z,16.50
2023-01-07T10:11:18.430Z,16.50
2023-01-07T10:14:37.754Z,16.50
2023-01-07T10:17:48.649Z,16.40
2023-01-07T10:20:37.253Z,16.40
2023-01-07T10:23:34.090Z,16.40
2023-01-07T10:26:05.335Z,16.30
2023-01-07T10:28:53.339Z,16.30
2023-01-07T10:31:30.014Z,16.20
2023-01-07T10:34:05.802Z,16.20
2023-01-07T10:36:47.641Z,16.20
2023-01-07T10:39:51.425Z,16.10
2023-01-07T10:42:41.265Z,16.00
2023-01-07T10:45:26.636Z,15.90
2023-01-07T10:48:24.081Z,15.90
2023-01-07T10:51:28.041Z,15.90
2023-01-07T10:54:24.243Z,15.90
2023-01-07T10:57:00.601Z,15.90
2023-01-07T10:59:31.823Z,15.80
2023-01-07T11:02:03.532Z,15.80
2023-01-07T11:04:39.553Z,15.80
2023-01-07T11:07:18.200Z,15.80
2023-01-07T11:09:51.329Z,15.80
2023-01-07T11:12:39.979Z,15.80
2023-01-07T11:15:51.495Z,15.70
2023-01-07T11:18:48.070Z,15.70
2023-01-07T11:21:44.367Z,15.70
2023-01-07T11:24:41.005Z,15.70
2023-01-07T11:27:22.390Z,15.70
2023-01-07T11:30:04.599Z,15.70
2023-01-07T11:32:42.536Z,15.70
2023-01-07T11:35:22.445Z,15.70
2023-01-07T11:37:55.266Z,15.70
2023-01-07T11:40:33.397Z,15.70
2023-01-07T11:43:05.881Z,15.80
2023-01-07T11:45:40.257Z,15.80
2023-01-07T11:48:35.549Z,15.80
2023-01-07T11:51:11.375Z,15.80
2023-01-07T11:53:54.782Z,15.80
2023-01-07T11:56:38.339Z,15.80
2023-01-07T11:59:19.054Z,15.80
2023-01-07T12:01:52.190Z,15.80
2023-01-07T12:04:52.865Z,15.80
2023-01-07T12:07:25.892Z,15.80
2023-01-07T12:09:56.615Z,15.80
2023-01-07T12:12:43.249Z,15.80
2023-01-07T12:15:31.535Z,15.70
2023-01-07T12:18:11.732Z,15.70
2023-01-07T12:21:21.053Z,15.70
2023-01-07T12:24:09.167Z,15.50
2023-01-07T12:27:16.485Z,15.50
2023-01-07T12:30:05.741Z,15.40
2023-01-07T12:33:03.489Z,15.40
2023-01-07T12:35:47.803Z,15.40
2023-01-07T12:38:45.565Z,15.30
2023-01-07T12:41:40.490Z,15.40
2023-01-07T12:44:26.687Z,15.40
2023-01-07T12:47:35.068Z,15.40
2023-01-07T12:50:46.725Z,15.40
2023-01-07T12:53:20.143Z,15.40
2023-01-07T12:56:08.724Z,15.30
2023-01-07T12:59:05.583Z,15.30
2023-01-07T13:02:11.188Z,15.30
2023-01-07T13:05:06.379Z,15.20
2023-01-07T13:07:46.126Z,15.20
2023-01-07T13:10:37.751Z,15.30
2023-01-07T13:13:31.069Z,15.30
2023-01-07T13:16:02.371Z,15.30
2023-01-07T13:18:33.587Z,15.30
2023-01-07T13:21:13.439Z,15.20
2023-01-07T13:23:53.448Z,15.20
2023-01-07T13:26:51.482Z,15.20
2023-01-07T13:29:21.645Z,15.20
2023-01-07T13:32:35.152Z,15.10
2023-01-07T13:35:32.544Z,15.10
2023-01-07T13:38:33.619Z,15.00
2023-01-07T13:41:07.800Z,15.00
2023-01-07T13:43:50.777Z,14.90
2023-01-07T13:46:30.609Z,14.90
2023-01-07T13:49:03.875Z,14.80
2023-01-07T13:51:41.763Z,14.70
2023-01-07T13:54:13.280Z,14.60
2023-01-07T13:56:45.655Z,14.50
2023-01-07T13:59:34.182Z,14.40
2023-01-07T14:02:21.143Z,14.30
2023-01-07T14:04:55.037Z,14.30
2023-01-07T14:07:26.769Z,14.20
2023-01-07T14:10:05.201Z,14.10
2023-01-07T14:13:07.480Z,14.10
2023-01-07T14:15:41.493Z,14.10
2023-01-07T14:18:27.755Z,14.00
2023-01-07T14:21:21.106Z,14.00
2023-01-07T14:24:07.395Z,13.90
2023-01-07T14:27:30.509Z,13.90
2023-01-07T14:30:16.402Z,13.80
2023-01-07T14:32:47.846Z,13.80
2023-01-07T14:35:48.808Z,13.80
2023-01-07T14:38:38.867Z,13.70
2023-01-07T14:41:17.973Z,13.70
2023-01-07T14:44:03.507Z,13.60
2023-01-07T14:46:47.085Z,13.60
2023-01-07T14:49:36.137Z,13.60
2023-01-07T14:52:34.238Z,13.60
2023-01-07T14:55:47.736Z,13.60
2023-01-07T14:58:21.536Z,13.50
2023-01-07T15:01:16.751Z,13.40
2023-01-07T15:04:11.496Z,13.40
2023-01-07T15:06:45.789Z,13.30
2023-01-07T15:09:49.074Z,13.30
2023-01-07T15:12:48.367Z,13.30
2023-01-07T15:15:48.474Z,13.30
2023-01-07T15:18:19.439Z,13.40
2023-01-07T15:20:56.124Z,13.40
2023-01-07T15:23:52.474Z,13.40
2023-01-07T15:26:49.233Z,13.50
2023-01-07T15:29:29.511Z,13.50
2023-01-07T15:32:28.552Z,13.50
2023-01-07T15:35:04.776Z,13.50
2023-01-07T15:37:38.327Z,13.50
2023-01-07T15:40:19.224Z,13.40
2023-01-07T15:42:53.719Z,13.40
2023-01-07T15:45:27.767Z,13.40
2023-01-07T15:48:12.889Z,13.30
2023-01-07T15:50:48.607Z,13.30
2023-01-07T15:53:28.148Z,13.30
2023-01-07T15:56:09.280Z,13.30
2023-01-07T15:58:43.322Z,13.30
2023-01-07T16:01:28.206Z,13.20
2023-01-07T16:04:02.459Z,13.20
2023-01-07T16:06:47.425Z,13.20
2023-01-07T16:09:24.107Z,13.10
2023-01-07T16:11:55.043Z,13.10
2023-01-07T16:14:28.725Z,13.10
2023-01-07T16:17:18.796Z,13.10
2023-01-07T16:19:49.542Z,13.10
2023-01-07T16:22:25.410Z,13.10
2023-01-07T16:24:56.753Z,13.10
2023-01-07T16:27:33.185Z,13.10
2023-01-07T16:30:04.000Z,13.00
2023-01-07T16:32:36.566Z,13.00
2023-01-07T16:35:37.313Z,13.00
2023-01-07T16:38:09.569Z,13.00
2023-01-07T16:40:42.712Z,12.90
2023-01-07T16:43:44.532Z,12.90
2023-01-07T16:46:21.605Z,12.90
2023-01-07T16:49:11.999Z,12.80
2023-01-07T16:51:53.921Z,12.80
2023-01-07T16:54:32.788Z,12.80
2023-01-07T16:57:20.876Z,12.70
2023-01-07T16:59:59.311Z,12.70
2023-01-07T17:02:36.048Z,12.60
2023-01-07T17:05:19.011Z,12.60
2023-01-07T17:08:21.895Z,12.60
2023-01-07T17:11:03.315Z,12.50
2023-01-07T17:13:42.171Z,12.40
2023-01-07T17:16:21.003Z,12.40
2023-01-07T17:18:51.999Z,12.40
2023-01-07T17:21:44.183Z,12.40
2023-01-07T17:24:44.111Z,12.40
2023-01-07T17:27:49.501Z,12.40
2023-01-07T17:30:25.286Z,12.40
2023-01-07T17:32:55.977Z,12.40
2023-01-07T17:35:29.427Z,12.40
2023-01-07T17:38:00.401Z,12.40
2023-01-07T17:40:30.653Z,12.40
2023-01-07T17:43:18.781Z,12.40
2023-01-07T17:45:49.155Z,12.40
2023-01-07T17:48:19.856Z,12.40
2023-01-07T17:50:51.139Z,12.40
2023-01-07T17:53:36.140Z,12.40
2023-01-07T17:56:06.893Z,12.40
2023-01-07T17:58:39.244Z,12.30
2023-01-07T18:01:13.003Z,12.30
2023-01-07T18:03:43.822Z,12.20
2023-01-07T18:06:23.610Z,12.10
2023-01-07T18:08:55.159Z,12.10
2023-01-07T18:11:46.975Z,12.00
2023-01-07T18:14:20.209Z,11.90
2023-01-07T18:16:51.304Z,11.80
2023-01-07T18:19:22.901Z,11.70
2023-01-07T18:21:53.514Z,11.60
2023-01-07T18:24:25.130Z,11.60
2023-01-07T18:26:56.630Z,11.60
2023-01-07T18:29:27.400Z,11.50
2023-01-07T18:31:59.788Z,11.50
2023-01-07T18:34:31.545Z,11.40
2023-01-07T18:37:01.964Z,11.40
2023-01-07T18:39:32.223Z,11.40
2023-01-07T18:42:02.901Z,11.30
2023-01-07T18:44:33.959Z,11.30
2023-01-07T18:47:04.198Z,11.30
2023-01-07T18:49:34.548Z,11.30
2023-01-07T18:52:04.835Z,11.20
2023-01-07T18:54:35.334Z,11.20
2023-01-07T18:57:06.343Z,11.20
2023-01-07T18:59:37.781Z,11.20
2023-01-07T19:02:11.130Z,11.20
2023-01-07T19:04:43.245Z,11.20
2023-01-07T19:07:13.644Z,11.10
2023-01-07T19:09:44.237Z,11.10
2023-01-07T19:12:15.224Z,11.00
2023-01-07T19:14:45.476Z,11.00
2023-01-07T19:17:15.918Z,11.00
2023-01-07T19:19:48.725Z,11.00
2023-01-07T19:22:20.174Z,10.90
2023-01-07T19:24:50.424Z,11.00
2023-01-07T19:27:20.898Z,11.00
2023-01-07T19:29:51.312Z,11.00
2023-01-07T19:32:21.690Z,11.00
2023-01-07T19:34:54.036Z,11.00
2023-01-07T19:37:24.277Z,11.00
2023-01-07T19:39:55.037Z,11.10
2023-01-07T19:42:25.875Z,11.00
2023-01-07T19:44:57.497Z,11.10
2023-01-07T19:47:28.216Z,11.10
2023-01-07T19:50:00.825Z,11.10
2023-01-07T19:52:31.224Z,11.20
2023-01-07T19:55:01.607Z,11.20
2023-01-07T19:57:32.466Z,11.20
2023-01-07T20:00:03.518Z,11.30
2023-01-07T20:02:34.473Z,11.30
2023-01-07T20:05:04.832Z,11.30
2023-01-07T20:07:36.601Z,11.40
2023-01-07T20:10:07.148Z,11.50
2023-01-07T20:12:37.708Z,11.60
2023-01-07T20:15:08.357Z,11.60
2023-01-07T20:17:38.676Z,11.70
2023-01-07T20:20:09.640Z,11.80
2023-01-07T20:22:43.252Z,11.90
2023-01-07T20:25:14.248Z,11.90
2023-01-07T20:27:44.625Z,12.00
2023-01-07T20:30:15.492Z,12.10
2023-01-07T20:32:45.820Z,12.10
2023-01-07T20:35:16.069Z,12.20
2023-01-07T20:37:46.748Z,12.30
2023-01-07T20:40:16.979Z,12.40
2023-01-07T20:42:47.199Z,12.50
2023-01-07T20:45:17.662Z,12.60
2023-01-07T20:47:47.885Z,12.70
2023-01-07T20:50:19.994Z,12.70
2023-01-07T20:52:50.196Z,12.80
2023-01-07T20:55:20.738Z,12.90
2023-01-07T20:57:51.074Z,13.00
2023-01-07T21:00:21.908Z,13.10
2023-01-07T21:02:53.868Z,13.30
2023-01-07T21:05:26.673Z,13.50
2023-01-07T21:07:57.526Z,13.70
2023-01-07T21:13:12.605Z,14.10
2023-01-07T21:15:43.250Z,14.20
2023-01-07T21:18:13.486Z,14.30
2023-01-07T21:20:44.915Z,14.40
2023-01-07T21:23:15.848Z,14.50
2023-01-07T21:25:50.724Z,14.60
2023-01-07T21:28:21.546Z,14.70
2023-01-07T21:30:51.963Z,14.70
2023-01-07T21:33:22.293Z,14.70
2023-01-07T21:35:52.529Z,14.80
2023-01-07T21:38:31.748Z,15.10
2023-01-07T21:41:01.970Z,15.60
2023-01-07T21:43:36.400Z,16.00
2023-01-07T21:46:10.036Z,16.40
2023-01-07T21:48:46.425Z,16.60
2023-01-07T21:51:24.270Z,16.90
2023-01-07T21:53:57.445Z,17.30
2023-01-07T21:56:34.253Z,17.60
2023-01-07T21:59:05.046Z,17.90
2023-01-07T22:01:35.815Z,18.10
2023-01-07T22:04:07.860Z,18.30
2023-01-07T22:06:44.262Z,18.50
2023-01-07T22:09:18.019Z,18.80
2023-01-07T22:11:49.241Z,19.00
2023-01-07T22:14:21.801Z,19.20
2023-01-07T22:16:52.578Z,19.40
2023-01-07T22:19:23.352Z,19.70
2023-01-07T22:21:54.958Z,20.00
2023-01-07T22:24:25.701Z,20.10
2023-01-07T22:26:57.547Z,20.40
2023-01-07T22:29:28.414Z,20.60
2023-01-07T22:31:59.433Z,20.70
2023-01-07T22:34:30.135Z,20.80
2023-01-07T22:37:19.890Z,20.80
2023-01-07T22:40:02.367Z,20.90
2023-01-07T22:42:55.528Z,20.90
2023-01-07T22:45:46.258Z,20.90
2023-01-07T22:48:22.372Z,21.00
2023-01-07T22:50:57.406Z,21.10
2023-01-07T22:53:28.451Z,21.10
2023-01-07T22:56:00.824Z,21.00
2023-01-07T22:58:31.571Z,20.90
2023-01-07T23:01:02.300Z,20.80
2023-01-07T23:03:33.403Z,20.70
2023-01-07T23:06:04.283Z,20.80
2023-01-07T23:08:35.225Z,20.80
2023-01-07T23:11:06.593Z,20.70
2023-01-07T23:13:38.428Z,20.80
2023-01-07T23:16:17.568Z,20.90
2023-01-07T23:18:48.385Z,21.10
2023-01-07T23:21:20.659Z,21.10
2023-01-07T23:23:51.664Z,21.20
2023-01-07T23:26:22.309Z,21.30
2023-01-07T23:28:54.003Z,21.30
2023-01-07T23:31:24.752Z,21.40
2023-01-07T23:33:58.130Z,21.40
2023-01-07T23:36:29.521Z,21.40
2023-01-07T23:39:02.301Z,21.40
2023-01-07T23:41:35.063Z,21.60
2023-01-07T23:44:09.423Z,21.70
2023-01-07T23:46:40.348Z,21.80
2023-01-07T23:49:11.788Z,22.00
2023-01-07T23:51:51.610Z,22.10
2023-01-07T23:54:22.856Z,22.30
2023-01-07T23:56:54.298Z,22.40
2023-01-07T23:59:24.944Z,22.50
